KJFZ

Tazewell County Airport

Richlands, Virginia, USA
METAR KJFZ 231415Z AUTO 15009KT 110V170 10SM CLR 18/14 A3041 RMK AO2 T01780140
Observed Flight Rules
Feb-23 @ 14:15 UTC (23 minutes ago) Visual Flight Rules
Wind Visibility Clouds
150° at 9 knots 10 miles
  • Clear skies
Temperatures Readings
Current 18°C / 64°F
Dewpoint 14°C / 57°F
Humidity 78%
Altimeter 30.41" Hg
Pressure 1030 hPa
Elevation 809
METAR KJFZ 231415Z AUTO 15009KT 110V170 10SM CLR 18/14 A3041 RMK AO2 T01780140
Observed Flight Rules
Feb-23 @ 14:15 UTC
(23 minutes ago)
VFR
Wind Visibility
150° at 9 knots 10 miles
Clouds
  • Clear skies
Temperature Dewpoint
18°C / 64°F 14°C / 57°F
Humidity Altimeter Pressure
78% 30.41" Hg 1030 hPa